sensor_id;sensor_type;location;lat;lon;timestamp;temperature;humidity
38361;DHT22;42005;48.044;14.416;2024-03-17T00:00:31;10.90;92.80
38361;DHT22;42005;48.044;14.416;2024-03-17T00:02:57;10.90;92.30
38361;DHT22;42005;48.044;14.416;2024-03-17T00:05:25;10.90;93.30
38361;DHT22;42005;48.044;14.416;2024-03-17T00:07:51;10.90;92.30
38361;DHT22;42005;48.044;14.416;2024-03-17T00:10:18;10.90;93.10
38361;DHT22;42005;48.044;14.416;2024-03-17T00:12:45;10.90;92.30
38361;DHT22;42005;48.044;14.416;2024-03-17T00:15:11;10.80;91.70
38361;DHT22;42005;48.044;14.416;2024-03-17T00:17:37;10.80;92.70
38361;DHT22;42005;48.044;14.416;2024-03-17T00:20:04;10.80;92.40
38361;DHT22;42005;48.044;14.416;2024-03-17T00:22:38;10.80;92.30
38361;DHT22;42005;48.044;14.416;2024-03-17T00:25:06;10.80;92.20
38361;DHT22;42005;48.044;14.416;2024-03-17T00:27:32;10.80;92.40
38361;DHT22;42005;48.044;14.416;2024-03-17T00:29:59;10.80;91.80
38361;DHT22;42005;48.044;14.416;2024-03-17T00:32:27;10.80;91.60
38361;DHT22;42005;48.044;14.416;2024-03-17T00:34:53;10.80;91.40
38361;DHT22;42005;48.044;14.416;2024-03-17T00:37:19;10.80;92.00
38361;DHT22;42005;48.044;14.416;2024-03-17T00:39:47;10.80;91.70
38361;DHT22;42005;48.044;14.416;2024-03-17T00:42:13;10.80;91.20
38361;DHT22;42005;48.044;14.416;2024-03-17T00:44:40;10.80;90.90
38361;DHT22;42005;48.044;14.416;2024-03-17T00:47:07;10.80;91.30
38361;DHT22;42005;48.044;14.416;2024-03-17T00:49:33;10.80;90.50
38361;DHT22;42005;48.044;14.416;2024-03-17T00:51:59;10.80;90.60
38361;DHT22;42005;48.044;14.416;2024-03-17T00:54:28;10.80;90.60
38361;DHT22;42005;48.044;14.416;2024-03-17T00:56:54;10.80;89.40
38361;DHT22;42005;48.044;14.416;2024-03-17T00:59:20;10.80;89.30
38361;DHT22;42005;48.044;14.416;2024-03-17T01:01:48;10.80;89.10
38361;DHT22;42005;48.044;14.416;2024-03-17T01:04:14;10.80;88.90
38361;DHT22;42005;48.044;14.416;2024-03-17T01:06:40;10.80;88.10
38361;DHT22;42005;48.044;14.416;2024-03-17T01:09:07;10.80;88.70
38361;DHT22;42005;48.044;14.416;2024-03-17T01:11:34;10.80;88.00
38361;DHT22;42005;48.044;14.416;2024-03-17T01:14:00;10.80;89.00
38361;DHT22;42005;48.044;14.416;2024-03-17T01:16:31;10.80;90.00
38361;DHT22;42005;48.044;14.416;2024-03-17T01:18:59;10.80;88.10
38361;DHT22;42005;48.044;14.416;2024-03-17T01:21:25;10.70;86.30
38361;DHT22;42005;48.044;14.416;2024-03-17T01:23:51;10.70;87.70
38361;DHT22;42005;48.044;14.416;2024-03-17T01:26:17;10.70;86.40
38361;DHT22;42005;48.044;14.416;2024-03-17T01:28:45;10.70;87.70
38361;DHT22;42005;48.044;14.416;2024-03-17T01:31:14;10.70;87.10
38361;DHT22;42005;48.044;14.416;2024-03-17T01:33:40;10.70;87.50
38361;DHT22;42005;48.044;14.416;2024-03-17T01:36:08;10.70;86.60
38361;DHT22;42005;48.044;14.416;2024-03-17T01:38:33;10.60;86.90
38361;DHT22;42005;48.044;14.416;2024-03-17T01:41:03;10.60;86.30
38361;DHT22;42005;48.044;14.416;2024-03-17T01:43:32;10.60;86.80
38361;DHT22;42005;48.044;14.416;2024-03-17T01:45:58;10.70;87.00
38361;DHT22;42005;48.044;14.416;2024-03-17T01:48:25;10.60;87.60
38361;DHT22;42005;48.044;14.416;2024-03-17T01:50:53;10.60;88.70
38361;DHT22;42005;48.044;14.416;2024-03-17T01:53:24;10.60;87.40
38361;DHT22;42005;48.044;14.416;2024-03-17T01:55:52;10.60;86.60
38361;DHT22;42005;48.044;14.416;2024-03-17T01:58:20;10.60;87.30
38361;DHT22;42005;48.044;14.416;2024-03-17T02:00:48;10.60;86.40
38361;DHT22;42005;48.044;14.416;2024-03-17T02:03:17;10.60;86.80
38361;DHT22;42005;48.044;14.416;2024-03-17T02:05:47;10.60;87.20
38361;DHT22;42005;48.044;14.416;2024-03-17T02:08:13;10.60;86.90
38361;DHT22;42005;48.044;14.416;2024-03-17T02:10:41;10.60;87.60
38361;DHT22;42005;48.044;14.416;2024-03-17T02:13:08;10.70;89.50
38361;DHT22;42005;48.044;14.416;2024-03-17T02:15:33;10.70;89.50
38361;DHT22;42005;48.044;14.416;2024-03-17T02:18:02;10.70;87.80
38361;DHT22;42005;48.044;14.416;2024-03-17T02:20:30;10.70;87.10
38361;DHT22;42005;48.044;14.416;2024-03-17T02:23:15;10.70;86.00
38361;DHT22;42005;48.044;14.416;2024-03-17T02:25:41;10.70;85.60
38361;DHT22;42005;48.044;14.416;2024-03-17T02:28:07;10.70;84.50
38361;DHT22;42005;48.044;14.416;2024-03-17T02:30:33;10.70;86.40
38361;DHT22;42005;48.044;14.416;2024-03-17T02:32:59;10.80;86.10
38361;DHT22;42005;48.044;14.416;2024-03-17T02:35:25;10.80;86.80
38361;DHT22;42005;48.044;14.416;2024-03-17T02:37:52;10.80;86.00
38361;DHT22;42005;48.044;14.416;2024-03-17T02:40:18;10.80;84.90
38361;DHT22;42005;48.044;14.416;2024-03-17T02:42:48;10.80;84.50
38361;DHT22;42005;48.044;14.416;2024-03-17T02:45:15;10.80;84.40
38361;DHT22;42005;48.044;14.416;2024-03-17T02:47:41;10.80;84.50
38361;DHT22;42005;48.044;14.416;2024-03-17T02:50:08;10.80;84.60
38361;DHT22;42005;48.044;14.416;2024-03-17T02:52:38;10.80;84.10
38361;DHT22;42005;48.044;14.416;2024-03-17T02:55:04;10.80;85.20
38361;DHT22;42005;48.044;14.416;2024-03-17T02:57:33;10.80;84.90
38361;DHT22;42005;48.044;14.416;2024-03-17T02:59:59;10.80;84.70
38361;DHT22;42005;48.044;14.416;2024-03-17T03:02:32;10.80;84.80
38361;DHT22;42005;48.044;14.416;2024-03-17T03:04:58;10.80;84.50
38361;DHT22;42005;48.044;14.416;2024-03-17T03:07:26;10.80;86.50
38361;DHT22;42005;48.044;14.416;2024-03-17T03:09:52;10.80;86.50
38361;DHT22;42005;48.044;14.416;2024-03-17T03:12:20;10.80;86.00
38361;DHT22;42005;48.044;14.416;2024-03-17T03:14:48;10.80;86.50
38361;DHT22;42005;48.044;14.416;2024-03-17T03:17:14;10.80;85.20
38361;DHT22;42005;48.044;14.416;2024-03-17T03:19:40;10.80;86.00
38361;DHT22;42005;48.044;14.416;2024-03-17T03:22:06;10.70;86.10
38361;DHT22;42005;48.044;14.416;2024-03-17T03:24:32;10.80;85.40
38361;DHT22;42005;48.044;14.416;2024-03-17T03:27:00;10.80;85.20
38361;DHT22;42005;48.044;14.416;2024-03-17T03:29:27;10.80;85.30
38361;DHT22;42005;48.044;14.416;2024-03-17T03:31:53;10.80;85.70
38361;DHT22;42005;48.044;14.416;2024-03-17T03:34:19;10.70;84.70
38361;DHT22;42005;48.044;14.416;2024-03-17T03:36:47;10.70;85.00
38361;DHT22;42005;48.044;14.416;2024-03-17T03:39:15;10.70;85.30
38361;DHT22;42005;48.044;14.416;2024-03-17T03:41:41;10.70;84.80
38361;DHT22;42005;48.044;14.416;2024-03-17T03:44:08;10.70;84.80
38361;DHT22;42005;48.044;14.416;2024-03-17T03:46:36;10.70;85.10
38361;DHT22;42005;48.044;14.416;2024-03-17T03:49:02;10.70;85.60
38361;DHT22;42005;48.044;14.416;2024-03-17T03:51:28;10.70;84.70
38361;DHT22;42005;48.044;14.416;2024-03-17T03:53:56;10.60;85.50
38361;DHT22;42005;48.044;14.416;2024-03-17T03:56:22;10.70;85.90
38361;DHT22;42005;48.044;14.416;2024-03-17T03:58:51;10.70;85.60
38361;DHT22;42005;48.044;14.416;2024-03-17T04:01:19;10.70;85.60
38361;DHT22;42005;48.044;14.416;2024-03-17T04:03:48;10.60;85.30
38361;DHT22;42005;48.044;14.416;2024-03-17T04:06:15;10.60;86.90
38361;DHT22;42005;48.044;14.416;2024-03-17T04:08:41;10.50;87.20
38361;DHT22;42005;48.044;14.416;2024-03-17T04:11:09;10.50;86.70
38361;DHT22;42005;48.044;14.416;2024-03-17T04:13:35;10.50;86.90
38361;DHT22;42005;48.044;14.416;2024-03-17T04:16:04;10.50;86.90
38361;DHT22;42005;48.044;14.416;2024-03-17T04:18:35;10.50;87.00
38361;DHT22;42005;48.044;14.416;2024-03-17T04:21:06;10.60;88.00
38361;DHT22;42005;48.044;14.416;2024-03-17T04:23:35;10.60;86.80
38361;DHT22;42005;48.044;14.416;2024-03-17T04:26:01;10.50;87.90
38361;DHT22;42005;48.044;14.416;2024-03-17T04:28:29;10.40;88.40
38361;DHT22;42005;48.044;14.416;2024-03-17T04:31:08;10.40;89.40
38361;DHT22;42005;48.044;14.416;2024-03-17T04:33:37;10.40;89.50
38361;DHT22;42005;48.044;14.416;2024-03-17T04:36:05;10.40;90.30
38361;DHT22;42005;48.044;14.416;2024-03-17T04:38:31;10.40;90.30
38361;DHT22;42005;48.044;14.416;2024-03-17T04:41:00;10.40;90.00
38361;DHT22;42005;48.044;14.416;2024-03-17T04:43:33;10.40;90.40
38361;DHT22;42005;48.044;14.416;2024-03-17T04:46:04;10.30;90.50
38361;DHT22;42005;48.044;14.416;2024-03-17T04:48:34;10.30;90.60
38361;DHT22;42005;48.044;14.416;2024-03-17T04:51:00;10.20;91.20
38361;DHT22;42005;48.044;14.416;2024-03-17T04:53:26;10.20;91.70
38361;DHT22;42005;48.044;14.416;2024-03-17T04:56:05;10.20;91.80
38361;DHT22;42005;48.044;14.416;2024-03-17T04:58:34;10.10;92.20
38361;DHT22;42005;48.044;14.416;2024-03-17T05:01:08;10.10;91.90
38361;DHT22;42005;48.044;14.416;2024-03-17T05:03:36;10.00;91.90
38361;DHT22;42005;48.044;14.416;2024-03-17T05:06:04;10.00;92.40
38361;DHT22;42005;48.044;14.416;2024-03-17T05:08:31;10.00;92.50
38361;DHT22;42005;48.044;14.416;2024-03-17T05:11:06;10.00;92.40
38361;DHT22;42005;48.044;14.416;2024-03-17T05:13:36;10.00;92.60
38361;DHT22;42005;48.044;14.416;2024-03-17T05:16:05;10.00;92.30
38361;DHT22;42005;48.044;14.416;2024-03-17T05:18:32;10.00;92.00
38361;DHT22;42005;48.044;14.416;2024-03-17T05:21:05;9.90;92.50
38361;DHT22;42005;48.044;14.416;2024-03-17T05:23:34;9.90;92.80
38361;DHT22;42005;48.044;14.416;2024-03-17T05:26:00;9.80;93.10
38361;DHT22;42005;48.044;14.416;2024-03-17T05:28:28;9.80;93.10
38361;DHT22;42005;48.044;14.416;2024-03-17T05:30:56;9.80;93.10
38361;DHT22;42005;48.044;14.416;2024-03-17T05:33:26;9.80;93.60
38361;DHT22;42005;48.044;14.416;2024-03-17T05:35:54;9.80;93.30
38361;DHT22;42005;48.044;14.416;2024-03-17T05:38:24;9.70;93.10
38361;DHT22;42005;48.044;14.416;2024-03-17T05:41:01;9.70;94.00
38361;DHT22;42005;48.044;14.416;2024-03-17T05:43:31;9.80;94.30
38361;DHT22;42005;48.044;14.416;2024-03-17T05:46:11;9.70;93.90
38361;DHT22;42005;48.044;14.416;2024-03-17T05:48:40;9.70;94.10
38361;DHT22;42005;48.044;14.416;2024-03-17T05:51:12;9.60;94.30
38361;DHT22;42005;48.044;14.416;2024-03-17T05:53:39;9.70;94.90
38361;DHT22;42005;48.044;14.416;2024-03-17T05:56:10;9.70;95.60
38361;DHT22;42005;48.044;14.416;2024-03-17T05:58:39;9.80;95.50
38361;DHT22;42005;48.044;14.416;2024-03-17T06:01:05;9.80;95.90
38361;DHT22;42005;48.044;14.416;2024-03-17T06:03:35;9.90;96.00
38361;DHT22;42005;48.044;14.416;2024-03-17T06:06:08;9.90;96.20
38361;DHT22;42005;48.044;14.416;2024-03-17T06:08:37;9.90;95.80
38361;DHT22;42005;48.044;14.416;2024-03-17T06:11:05;9.90;95.50
38361;DHT22;42005;48.044;14.416;2024-03-17T06:13:31;10.00;94.80
38361;DHT22;42005;48.044;14.416;2024-03-17T06:15:57;10.00;94.90
38361;DHT22;42005;48.044;14.416;2024-03-17T06:18:29;9.90;95.40
38361;DHT22;42005;48.044;14.416;2024-03-17T06:20:55;9.90;96.00
38361;DHT22;42005;48.044;14.416;2024-03-17T06:23:24;10.00;94.90
38361;DHT22;42005;48.044;14.416;2024-03-17T06:25:53;10.10;94.50
38361;DHT22;42005;48.044;14.416;2024-03-17T06:28:23;10.10;93.00
38361;DHT22;42005;48.044;14.416;2024-03-17T06:30:57;10.20;92.90
38361;DHT22;42005;48.044;14.416;2024-03-17T06:33:25;10.20;93.10
38361;DHT22;42005;48.044;14.416;2024-03-17T06:35:51;10.20;92.70
38361;DHT22;42005;48.044;14.416;2024-03-17T06:38:17;10.20;93.10
38361;DHT22;42005;48.044;14.416;2024-03-17T06:40:51;10.30;92.30
38361;DHT22;42005;48.044;14.416;2024-03-17T06:43:18;10.30;92.40
38361;DHT22;42005;48.044;14.416;2024-03-17T06:45:44;10.20;92.30
38361;DHT22;42005;48.044;14.416;2024-03-17T06:48:21;10.30;93.30
38361;DHT22;42005;48.044;14.416;2024-03-17T06:50:46;10.20;93.00
38361;DHT22;42005;48.044;14.416;2024-03-17T06:53:12;10.30;93.40
38361;DHT22;42005;48.044;14.416;2024-03-17T06:55:38;10.30;92.70
38361;DHT22;42005;48.044;14.416;2024-03-17T06:58:04;10.50;92.20
38361;DHT22;42005;48.044;14.416;2024-03-17T07:00:30;10.60;92.10
38361;DHT22;42005;48.044;14.416;2024-03-17T07:03:00;10.70;91.70
38361;DHT22;42005;48.044;14.416;2024-03-17T07:05:28;10.80;90.50
38361;DHT22;42005;48.044;14.416;2024-03-17T07:07:55;10.80;90.20
38361;DHT22;42005;48.044;14.416;2024-03-17T07:10:23;10.90;90.30
38361;DHT22;42005;48.044;14.416;2024-03-17T07:12:49;11.00;90.50
38361;DHT22;42005;48.044;14.416;2024-03-17T07:15:18;11.10;89.40
38361;DHT22;42005;48.044;14.416;2024-03-17T07:17:44;11.20;88.00
38361;DHT22;42005;48.044;14.416;2024-03-17T07:20:12;11.30;88.00
38361;DHT22;42005;48.044;14.416;2024-03-17T07:22:38;11.40;85.70
38361;DHT22;42005;48.044;14.416;2024-03-17T07:25:04;11.50;85.10
38361;DHT22;42005;48.044;14.416;2024-03-17T07:27:30;11.50;84.10
38361;DHT22;42005;48.044;14.416;2024-03-17T07:29:58;11.60;85.10
38361;DHT22;42005;48.044;14.416;2024-03-17T07:32:23;11.70;83.30
38361;DHT22;42005;48.044;14.416;2024-03-17T07:34:52;11.80;83.50
38361;DHT22;42005;48.044;14.416;2024-03-17T07:37:18;11.90;85.10
38361;DHT22;42005;48.044;14.416;2024-03-17T07:39:44;11.90;85.90
38361;DHT22;42005;48.044;14.416;2024-03-17T07:42:15;11.90;83.70
38361;DHT22;42005;48.044;14.416;2024-03-17T07:44:44;11.90;84.50
38361;DHT22;42005;48.044;14.416;2024-03-17T07:47:10;11.90;84.20
38361;DHT22;42005;48.044;14.416;2024-03-17T07:49:36;11.90;87.00
38361;DHT22;42005;48.044;14.416;2024-03-17T07:52:02;11.90;84.80
38361;DHT22;42005;48.044;14.416;2024-03-17T07:54:28;11.90;84.60
38361;DHT22;42005;48.044;14.416;2024-03-17T07:56:54;11.80;85.10
38361;DHT22;42005;48.044;14.416;2024-03-17T07:59:20;11.80;85.30
38361;DHT22;42005;48.044;14.416;2024-03-17T08:01:46;11.90;85.90
38361;DHT22;42005;48.044;14.416;2024-03-17T08:04:12;11.90;85.50
38361;DHT22;42005;48.044;14.416;2024-03-17T08:06:41;12.00;86.00
38361;DHT22;42005;48.044;14.416;2024-03-17T08:09:07;12.00;86.60
38361;DHT22;42005;48.044;14.416;2024-03-17T08:11:37;12.10;86.30
38361;DHT22;42005;48.044;14.416;2024-03-17T08:14:04;12.10;86.90
38361;DHT22;42005;48.044;14.416;2024-03-17T08:16:31;12.10;85.80
38361;DHT22;42005;48.044;14.416;2024-03-17T08:18:59;12.20;85.10
38361;DHT22;42005;48.044;14.416;2024-03-17T08:21:25;12.20;84.10
38361;DHT22;42005;48.044;14.416;2024-03-17T08:23:54;12.20;83.40
38361;DHT22;42005;48.044;14.416;2024-03-17T08:26:20;12.30;83.70
38361;DHT22;42005;48.044;14.416;2024-03-17T08:28:45;12.30;83.10
38361;DHT22;42005;48.044;14.416;2024-03-17T08:31:12;12.40;83.60
38361;DHT22;42005;48.044;14.416;2024-03-17T08:33:38;12.40;83.30
38361;DHT22;42005;48.044;14.416;2024-03-17T08:36:05;12.50;80.40
38361;DHT22;42005;48.044;14.416;2024-03-17T08:38:34;12.50;79.80
38361;DHT22;42005;48.044;14.416;2024-03-17T08:41:10;12.70;81.40
38361;DHT22;42005;48.044;14.416;2024-03-17T08:43:37;12.70;78.90
38361;DHT22;42005;48.044;14.416;2024-03-17T08:46:10;12.80;77.30
38361;DHT22;42005;48.044;14.416;2024-03-17T08:48:38;12.90;75.10
38361;DHT22;42005;48.044;14.416;2024-03-17T08:51:05;13.00;75.20
38361;DHT22;42005;48.044;14.416;2024-03-17T08:53:34;13.20;73.70
38361;DHT22;42005;48.044;14.416;2024-03-17T08:56:04;13.40;72.50
38361;DHT22;42005;48.044;14.416;2024-03-17T08:58:32;13.50;71.30
38361;DHT22;42005;48.044;14.416;2024-03-17T09:00:58;13.60;71.30
38361;DHT22;42005;48.044;14.416;2024-03-17T09:03:25;13.80;72.70
38361;DHT22;42005;48.044;14.416;2024-03-17T09:05:54;14.00;71.50
38361;DHT22;42005;48.044;14.416;2024-03-17T09:08:22;14.10;67.90
38361;DHT22;42005;48.044;14.416;2024-03-17T09:10:50;14.20;68.50
38361;DHT22;42005;48.044;14.416;2024-03-17T09:13:23;14.40;68.70
38361;DHT22;42005;48.044;14.416;2024-03-17T09:15:58;14.40;69.40
38361;DHT22;42005;48.044;14.416;2024-03-17T09:18:28;14.40;69.60
38361;DHT22;42005;48.044;14.416;2024-03-17T09:21:04;14.20;69.50
38361;DHT22;42005;48.044;14.416;2024-03-17T09:23:31;14.10;68.70
38361;DHT22;42005;48.044;14.416;2024-03-17T09:26:04;14.10;69.10
38361;DHT22;42005;48.044;14.416;2024-03-17T09:28:31;14.20;68.80
38361;DHT22;42005;48.044;14.416;2024-03-17T09:30:58;14.40;66.60
38361;DHT22;42005;48.044;14.416;2024-03-17T09:33:26;14.60;65.10
38361;DHT22;42005;48.044;14.416;2024-03-17T09:36:00;14.60;65.50
38361;DHT22;42005;48.044;14.416;2024-03-17T09:38:29;14.60;64.80
38361;DHT22;42005;48.044;14.416;2024-03-17T09:40:56;14.60;65.40
38361;DHT22;42005;48.044;14.416;2024-03-17T09:43:32;14.60;64.40
38361;DHT22;42005;48.044;14.416;2024-03-17T09:45:59;14.60;62.30
38361;DHT22;42005;48.044;14.416;2024-03-17T09:48:28;14.70;62.30
38361;DHT22;42005;48.044;14.416;2024-03-17T09:50:56;14.80;60.60
38361;DHT22;42005;48.044;14.416;2024-03-17T09:53:31;14.90;61.20
38361;DHT22;42005;48.044;14.416;2024-03-17T09:56:15;15.00;62.80
38361;DHT22;42005;48.044;14.416;2024-03-17T09:58:42;14.90;62.90
38361;DHT22;42005;48.044;14.416;2024-03-17T10:01:09;14.80;62.20
38361;DHT22;42005;48.044;14.416;2024-03-17T10:03:53;14.70;63.70
38361;DHT22;42005;48.044;14.416;2024-03-17T10:06:27;14.60;63.50
38361;DHT22;42005;48.044;14.416;2024-03-17T10:08:57;14.50;61.80
38361;DHT22;42005;48.044;14.416;2024-03-17T10:11:25;14.70;64.00
38361;DHT22;42005;48.044;14.416;2024-03-17T10:14:05;15.20;61.90
38361;DHT22;42005;48.044;14.416;2024-03-17T10:16:38;15.50;59.80
38361;DHT22;42005;48.044;14.416;2024-03-17T10:21:33;15.70;58.30
38361;DHT22;42005;48.044;14.416;2024-03-17T10:24:10;15.70;59.50
38361;DHT22;42005;48.044;14.416;2024-03-17T10:29:33;16.90;56.10
38361;DHT22;42005;48.044;14.416;2024-03-17T10:32:15;17.10;55.10
38361;DHT22;42005;48.044;14.416;2024-03-17T10:34:42;17.00;54.60
38361;DHT22;42005;48.044;14.416;2024-03-17T10:37:10;16.90;55.90
38361;DHT22;42005;48.044;14.416;2024-03-17T10:39:41;17.00;54.20
38361;DHT22;42005;48.044;14.416;2024-03-17T10:42:08;17.20;54.20
38361;DHT22;42005;48.044;14.416;2024-03-17T10:44:36;17.30;54.00
38361;DHT22;42005;48.044;14.416;2024-03-17T10:47:03;18.10;53.30
38361;DHT22;42005;48.044;14.416;2024-03-17T10:49:36;19.30;51.00
38361;DHT22;42005;48.044;14.416;2024-03-17T10:52:08;20.80;48.10
38361;DHT22;42005;48.044;14.416;2024-03-17T10:54:38;21.40;45.40
38361;DHT22;42005;48.044;14.416;2024-03-17T11:00:06;21.30;47.30
38361;DHT22;42005;48.044;14.416;2024-03-17T11:02:35;21.20;46.90
38361;DHT22;42005;48.044;14.416;2024-03-17T11:05:10;20.90;44.50
38361;DHT22;42005;48.044;14.416;2024-03-17T11:07:42;20.40;43.20
38361;DHT22;42005;48.044;14.416;2024-03-17T11:10:22;20.10;44.60
38361;DHT22;42005;48.044;14.416;2024-03-17T11:17:54;19.70;46.00
38361;DHT22;42005;48.044;14.416;2024-03-17T11:20:27;19.70;47.30
38361;DHT22;42005;48.044;14.416;2024-03-17T11:23:00;19.60;48.20
38361;DHT22;42005;48.044;14.416;2024-03-17T11:27:53;19.20;49.10
38361;DHT22;42005;48.044;14.416;2024-03-17T11:41:41;23.10;41.20
38361;DHT22;42005;48.044;14.416;2024-03-17T11:47:04;25.20;41.40
38361;DHT22;42005;48.044;14.416;2024-03-17T11:52:00;27.60;36.20
38361;DHT22;42005;48.044;14.416;2024-03-17T11:54:34;28.90;32.00
38361;DHT22;42005;48.044;14.416;2024-03-17T11:59:32;31.00;29.20
38361;DHT22;42005;48.044;14.416;2024-03-17T12:01:58;31.90;28.00
38361;DHT22;42005;48.044;14.416;2024-03-17T12:04:25;31.70;27.20
38361;DHT22;42005;48.044;14.416;2024-03-17T12:06:54;30.60;27.80
38361;DHT22;42005;48.044;14.416;2024-03-17T12:12:04;30.50;28.10
38361;DHT22;42005;48.044;14.416;2024-03-17T12:14:32;31.00;28.40
38361;DHT22;42005;48.044;14.416;2024-03-17T12:17:10;31.00;27.00
38361;DHT22;42005;48.044;14.416;2024-03-17T12:19:37;30.40;28.50
38361;DHT22;42005;48.044;14.416;2024-03-17T12:22:08;30.50;28.00
38361;DHT22;42005;48.044;14.416;2024-03-17T12:24:36;30.90;28.20
38361;DHT22;42005;48.044;14.416;2024-03-17T12:27:06;31.50;26.90
38361;DHT22;42005;48.044;14.416;2024-03-17T12:29:36;32.00;26.60
38361;DHT22;42005;48.044;14.416;2024-03-17T12:34:40;32.50;27.30
38361;DHT22;42005;48.044;14.416;2024-03-17T12:37:07;31.70;26.50
38361;DHT22;42005;48.044;14.416;2024-03-17T12:39:35;31.60;26.90
38361;DHT22;42005;48.044;14.416;2024-03-17T12:44:48;30.70;27.40
38361;DHT22;42005;48.044;14.416;2024-03-17T12:47:19;30.70;28.80
38361;DHT22;42005;48.044;14.416;2024-03-17T12:49:56;30.80;29.30
38361;DHT22;42005;48.044;14.416;2024-03-17T12:57:50;30.70;29.10
38361;DHT22;42005;48.044;14.416;2024-03-17T13:00:36;30.40;28.80
38361;DHT22;42005;48.044;14.416;2024-03-17T13:03:06;29.80;27.70
38361;DHT22;42005;48.044;14.416;2024-03-17T13:05:36;28.90;30.00
38361;DHT22;42005;48.044;14.416;2024-03-17T13:08:03;28.70;29.40
38361;DHT22;42005;48.044;14.416;2024-03-17T13:10:31;28.90;30.20
38361;DHT22;42005;48.044;14.416;2024-03-17T13:13:05;29.20;29.80
38361;DHT22;42005;48.044;14.416;2024-03-17T13:15:38;29.80;29.10
38361;DHT22;42005;48.044;14.416;2024-03-17T13:18:04;29.90;28.80
38361;DHT22;42005;48.044;14.416;2024-03-17T13:20:34;30.00;29.60
38361;DHT22;42005;48.044;14.416;2024-03-17T13:23:01;29.40;30.10
38361;DHT22;42005;48.044;14.416;2024-03-17T13:25:31;28.90;29.10
38361;DHT22;42005;48.044;14.416;2024-03-17T13:28:03;28.70;29.10
38361;DHT22;42005;48.044;14.416;2024-03-17T13:30:30;28.80;30.30
38361;DHT22;42005;48.044;14.416;2024-03-17T13:32:56;29.40;29.60
38361;DHT22;42005;48.044;14.416;2024-03-17T13:35:29;29.60;28.90
38361;DHT22;42005;48.044;14.416;2024-03-17T13:37:57;29.80;27.30
38361;DHT22;42005;48.044;14.416;2024-03-17T13:40:26;29.50;26.90
38361;DHT22;42005;48.044;14.416;2024-03-17T13:42:54;28.20;28.90
38361;DHT22;42005;48.044;14.416;2024-03-17T13:45:22;27.20;30.40
38361;DHT22;42005;48.044;14.416;2024-03-17T13:47:57;26.30;32.70
38361;DHT22;42005;48.044;14.416;2024-03-17T13:50:25;25.60;35.70
38361;DHT22;42005;48.044;14.416;2024-03-17T13:52:54;24.70;36.30
38361;DHT22;42005;48.044;14.416;2024-03-17T13:55:25;23.90;36.20
38361;DHT22;42005;48.044;14.416;2024-03-17T13:57:55;23.20;38.00
38361;DHT22;42005;48.044;14.416;2024-03-17T14:00:27;22.60;39.60
38361;DHT22;42005;48.044;14.416;2024-03-17T14:02:57;22.30;40.80
38361;DHT22;42005;48.044;14.416;2024-03-17T14:05:24;22.10;42.30
38361;DHT22;42005;48.044;14.416;2024-03-17T14:07:54;22.00;42.20
38361;DHT22;42005;48.044;14.416;2024-03-17T14:10:25;21.70;43.20
38361;DHT22;42005;48.044;14.416;2024-03-17T14:12:51;21.50;42.10
38361;DHT22;42005;48.044;14.416;2024-03-17T14:15:17;21.20;41.70
38361;DHT22;42005;48.044;14.416;2024-03-17T14:17:44;21.00;43.20
38361;DHT22;42005;48.044;14.416;2024-03-17T14:20:11;20.80;44.10
38361;DHT22;42005;48.044;14.416;2024-03-17T14:22:41;20.50;43.60
38361;DHT22;42005;48.044;14.416;2024-03-17T14:25:08;20.30;44.20
38361;DHT22;42005;48.044;14.416;2024-03-17T14:27:38;20.10;44.40
38361;DHT22;42005;48.044;14.416;2024-03-17T14:30:05;20.10;45.50
38361;DHT22;42005;48.044;14.416;2024-03-17T14:32:31;20.10;45.60
38361;DHT22;42005;48.044;14.416;2024-03-17T14:35:00;20.00;45.70
38361;DHT22;42005;48.044;14.416;2024-03-17T14:37:26;19.80;45.50
38361;DHT22;42005;48.044;14.416;2024-03-17T14:39:53;19.70;45.60
38361;DHT22;42005;48.044;14.416;2024-03-17T14:42:20;19.50;46.80
38361;DHT22;42005;48.044;14.416;2024-03-17T14:44:46;19.50;46.40
38361;DHT22;42005;48.044;14.416;2024-03-17T14:47:15;19.50;47.20
38361;DHT22;42005;48.044;14.416;2024-03-17T14:49:42;19.40;47.50
38361;DHT22;42005;48.044;14.416;2024-03-17T14:52:10;19.20;45.80
38361;DHT22;42005;48.044;14.416;2024-03-17T14:54:38;19.10;46.60
38361;DHT22;42005;48.044;14.416;2024-03-17T14:57:04;18.90;46.80
38361;DHT22;42005;48.044;14.416;2024-03-17T14:59:30;18.80;47.30
38361;DHT22;42005;48.044;14.416;2024-03-17T15:01:56;18.80;48.20
38361;DHT22;42005;48.044;14.416;2024-03-17T15:04:23;18.90;48.60
38361;DHT22;42005;48.044;14.416;2024-03-17T15:06:52;18.90;48.60
38361;DHT22;42005;48.044;14.416;2024-03-17T15:09:19;18.90;48.70
38361;DHT22;42005;48.044;14.416;2024-03-17T15:11:47;18.90;48.50
38361;DHT22;42005;48.044;14.416;2024-03-17T15:14:13;18.70;47.50
38361;DHT22;42005;48.044;14.416;2024-03-17T15:16:39;18.60;48.40
38361;DHT22;42005;48.044;14.416;2024-03-17T15:19:06;18.60;49.00
38361;DHT22;42005;48.044;14.416;2024-03-17T15:21:33;18.40;48.40
38361;DHT22;42005;48.044;14.416;2024-03-17T15:24:03;18.30;47.10
38361;DHT22;42005;48.044;14.416;2024-03-17T15:26:29;18.20;48.80
38361;DHT22;42005;48.044;14.416;2024-03-17T15:28:55;18.00;48.20
38361;DHT22;42005;48.044;14.416;2024-03-17T15:31:22;17.80;47.30
38361;DHT22;42005;48.044;14.416;2024-03-17T15:33:51;17.70;49.10
38361;DHT22;42005;48.044;14.416;2024-03-17T15:36:17;17.50;50.10
38361;DHT22;42005;48.044;14.416;2024-03-17T15:38:45;17.50;51.00
38361;DHT22;42005;48.044;14.416;2024-03-17T15:41:11;17.30;50.80
38361;DHT22;42005;48.044;14.416;2024-03-17T15:43:38;17.30;49.50
38361;DHT22;42005;48.044;14.416;2024-03-17T15:46:08;17.20;50.40
38361;DHT22;42005;48.044;14.416;2024-03-17T15:48:34;17.10;50.10
38361;DHT22;42005;48.044;14.416;2024-03-17T15:51:03;17.00;51.40
38361;DHT22;42005;48.044;14.416;2024-03-17T15:53:29;16.90;51.50
38361;DHT22;42005;48.044;14.416;2024-03-17T15:55:59;16.80;52.20
38361;DHT22;42005;48.044;14.416;2024-03-17T15:58:26;16.70;50.80
38361;DHT22;42005;48.044;14.416;2024-03-17T16:00:54;16.60;51.30
38361;DHT22;42005;48.044;14.416;2024-03-17T16:03:21;16.60;51.70
38361;DHT22;42005;48.044;14.416;2024-03-17T16:05:51;16.50;52.40
38361;DHT22;42005;48.044;14.416;2024-03-17T16:08:19;16.30;51.80
38361;DHT22;42005;48.044;14.416;2024-03-17T16:10:55;16.20;52.00
38361;DHT22;42005;48.044;14.416;2024-03-17T16:13:22;16.20;53.20